sensor_id;sensor_type;location;lat;lon;timestamp;pressure;altitude;pressure_sealevel;temperature;humidity
11345;BME280;5727;42.600;23.028;2022-10-24T00:00:24;94425.00;;;11.73;100.00
11345;BME280;5727;42.600;23.028;2022-10-24T00:02:51;94424.81;;;11.78;100.00
11345;BME280;5727;42.600;23.028;2022-10-24T00:05:18;94422.97;;;11.79;100.00
11345;BME280;5727;42.600;23.028;2022-10-24T00:07:44;94414.44;;;11.82;100.00
11345;BME280;5727;42.600;23.028;2022-10-24T00:10:12;94418.91;;;11.81;100.00
11345;BME280;5727;42.600;23.028;2022-10-24T00:12:40;94418.50;;;11.79;100.00
11345;BME280;5727;42.600;23.028;2022-10-24T00:15:08;94418.50;;;11.71;100.00
11345;BME280;5727;42.600;23.028;2022-10-24T00:17:34;94414.34;;;11.61;100.00
11345;BME280;5727;42.600;23.028;2022-10-24T00:20:03;94412.19;;;11.63;100.00
11345;BME280;5727;42.600;23.028;2022-10-24T00:22:31;94421.31;;;11.49;100.00
11345;BME280;5727;42.600;23.028;2022-10-24T00:24:58;94412.56;;;11.45;100.00
11345;BME280;5727;42.600;23.028;2022-10-24T00:27:24;94410.69;;;11.45;100.00
11345;BME280;5727;42.600;23.028;2022-10-24T00:29:52;94405.44;;;11.45;100.00
11345;BME280;5727;42.600;23.028;2022-10-24T00:32:19;94405.28;;;11.42;100.00
11345;BME280;5727;42.600;23.028;2022-10-24T00:34:46;94400.81;;;11.42;100.00
11345;BME280;5727;42.600;23.028;2022-10-24T00:37:13;94396.97;;;11.40;100.00
11345;BME280;5727;42.600;23.028;2022-10-24T00:39:40;94400.97;;;11.46;100.00
11345;BME280;5727;42.600;23.028;2022-10-24T00:42:06;94405.75;;;11.44;100.00
11345;BME280;5727;42.600;23.028;2022-10-24T00:44:36;94400.69;;;11.39;100.00
11345;BME280;5727;42.600;23.028;2022-10-24T00:47:07;94394.50;;;11.35;100.00
11345;BME280;5727;42.600;23.028;2022-10-24T00:49:42;94392.50;;;11.32;100.00
11345;BME280;5727;42.600;23.028;2022-10-24T00:52:12;94403.47;;;11.34;100.00
11345;BME280;5727;42.600;23.028;2022-10-24T00:54:40;94402.25;;;11.31;100.00
11345;BME280;5727;42.600;23.028;2022-10-24T00:57:11;94395.75;;;11.29;100.00
11345;BME280;5727;42.600;23.028;2022-10-24T00:59:42;94393.31;;;11.24;100.00
11345;BME280;5727;42.600;23.028;2022-10-24T01:02:12;94392.41;;;11.20;100.00
11345;BME280;5727;42.600;23.028;2022-10-24T01:04:38;94389.91;;;11.15;100.00
11345;BME280;5727;42.600;23.028;2022-10-24T01:07:15;94396.72;;;11.07;100.00
11345;BME280;5727;42.600;23.028;2022-10-24T01:10:02;94388.09;;;10.98;100.00
11345;BME280;5727;42.600;23.028;2022-10-24T01:12:40;94388.44;;;10.96;100.00
11345;BME280;5727;42.600;23.028;2022-10-24T01:15:16;94385.50;;;10.72;100.00
11345;BME280;5727;42.600;23.028;2022-10-24T01:17:53;94385.97;;;10.74;100.00
11345;BME280;5727;42.600;23.028;2022-10-24T01:20:29;94391.66;;;10.76;100.00
11345;BME280;5727;42.600;23.028;2022-10-24T01:23:13;94392.28;;;10.73;100.00
11345;BME280;5727;42.600;23.028;2022-10-24T01:25:58;94389.53;;;10.70;100.00
11345;BME280;5727;42.600;23.028;2022-10-24T01:28:38;94400.47;;;10.63;100.00
11345;BME280;5727;42.600;23.028;2022-10-24T01:31:10;94394.75;;;10.53;100.00
11345;BME280;5727;42.600;23.028;2022-10-24T01:33:41;94393.22;;;10.52;100.00
11345;BME280;5727;42.600;23.028;2022-10-24T01:36:15;94391.38;;;10.52;100.00
11345;BME280;5727;42.600;23.028;2022-10-24T01:38:45;94392.59;;;10.55;100.00
11345;BME280;5727;42.600;23.028;2022-10-24T01:41:16;94393.69;;;10.54;100.00
11345;BME280;5727;42.600;23.028;2022-10-24T01:43:48;94393.22;;;10.52;100.00
11345;BME280;5727;42.600;23.028;2022-10-24T01:46:22;94394.00;;;10.52;100.00
11345;BME280;5727;42.600;23.028;2022-10-24T01:48:54;94387.34;;;10.46;100.00
11345;BME280;5727;42.600;23.028;2022-10-24T01:51:23;94384.41;;;10.48;100.00
11345;BME280;5727;42.600;23.028;2022-10-24T01:53:53;94391.22;;;10.49;100.00
11345;BME280;5727;42.600;23.028;2022-10-24T01:56:20;94390.75;;;10.47;100.00
11345;BME280;5727;42.600;23.028;2022-10-24T01:58:46;94393.66;;;10.45;100.00
11345;BME280;5727;42.600;23.028;2022-10-24T02:01:16;94389.97;;;10.38;100.00
11345;BME280;5727;42.600;23.028;2022-10-24T02:03:49;94391.81;;;10.37;100.00
11345;BME280;5727;42.600;23.028;2022-10-24T02:06:22;94393.19;;;10.35;100.00
11345;BME280;5727;42.600;23.028;2022-10-24T02:08:52;94390.28;;;10.36;100.00
11345;BME280;5727;42.600;23.028;2022-10-24T02:11:20;94388.28;;;10.33;100.00
11345;BME280;5727;42.600;23.028;2022-10-24T02:13:51;94400.59;;;10.33;100.00
11345;BME280;5727;42.600;23.028;2022-10-24T02:16:20;94399.34;;;10.30;100.00
11345;BME280;5727;42.600;23.028;2022-10-24T02:18:51;94400.59;;;10.33;100.00
11345;BME280;5727;42.600;23.028;2022-10-24T02:21:23;94404.13;;;10.28;100.00
11345;BME280;5727;42.600;23.028;2022-10-24T02:23:56;94393.63;;;10.28;100.00
11345;BME280;5727;42.600;23.028;2022-10-24T02:26:30;94384.25;;;10.27;100.00
11345;BME280;5727;42.600;23.028;2022-10-24T02:29:01;94391.97;;;10.24;100.00
11345;BME280;5727;42.600;23.028;2022-10-24T02:31:32;94387.78;;;10.23;100.00
11345;BME280;5727;42.600;23.028;2022-10-24T02:34:05;94391.19;;;10.23;100.00
11345;BME280;5727;42.600;23.028;2022-10-24T02:36:34;94387.00;;;10.22;100.00
11345;BME280;5727;42.600;23.028;2022-10-24T02:39:03;94384.38;;;10.22;100.00
11345;BME280;5727;42.600;23.028;2022-10-24T02:41:34;94381.31;;;10.20;100.00
11345;BME280;5727;42.600;23.028;2022-10-24T02:44:02;94381.94;;;10.17;100.00
11345;BME280;5727;42.600;23.028;2022-10-24T02:46:30;94381.00;;;10.13;100.00
11345;BME280;5727;42.600;23.028;2022-10-24T02:48:59;94381.00;;;10.13;100.00
11345;BME280;5727;42.600;23.028;2022-10-24T02:51:31;94385.44;;;10.12;100.00
11345;BME280;5727;42.600;23.028;2022-10-24T02:54:00;94382.09;;;10.12;100.00
11345;BME280;5727;42.600;23.028;2022-10-24T02:56:27;94384.31;;;10.05;100.00
11345;BME280;5727;42.600;23.028;2022-10-24T02:58:54;94388.97;;;10.08;100.00
11345;BME280;5727;42.600;23.028;2022-10-24T03:01:22;94390.81;;;10.07;100.00
11345;BME280;5727;42.600;23.028;2022-10-24T03:03:49;94383.75;;;10.08;100.00
11345;BME280;5727;42.600;23.028;2022-10-24T03:06:15;94384.03;;;10.06;100.00
11345;BME280;5727;42.600;23.028;2022-10-24T03:08:44;94387.56;;;10.02;100.00
11345;BME280;5727;42.600;23.028;2022-10-24T03:11:10;94381.72;;;9.96;100.00
11345;BME280;5727;42.600;23.028;2022-10-24T03:13:37;94380.94;;;9.96;100.00
11345;BME280;5727;42.600;23.028;2022-10-24T03:16:04;94381.84;;;9.91;100.00
11345;BME280;5727;42.600;23.028;2022-10-24T03:18:31;94382.28;;;9.85;100.00
11345;BME280;5727;42.600;23.028;2022-10-24T03:20:58;94381.50;;;9.76;100.00
11345;BME280;5727;42.600;23.028;2022-10-24T03:23:24;94375.44;;;9.67;100.00
11345;BME280;5727;42.600;23.028;2022-10-24T03:25:54;94377.59;;;9.65;100.00
11345;BME280;5727;42.600;23.028;2022-10-24T03:28:21;94382.66;;;9.61;100.00
11345;BME280;5727;42.600;23.028;2022-10-24T03:30:48;94378.16;;;9.53;100.00
11345;BME280;5727;42.600;23.028;2022-10-24T03:33:15;94373.22;;;9.43;100.00
11345;BME280;5727;42.600;23.028;2022-10-24T03:35:42;94380.75;;;9.45;100.00
11345;BME280;5727;42.600;23.028;2022-10-24T03:38:09;94383.22;;;9.41;100.00
11345;BME280;5727;42.600;23.028;2022-10-24T03:40:36;94381.66;;;9.40;100.00
11345;BME280;5727;42.600;23.028;2022-10-24T03:43:05;94381.34;;;9.42;100.00
11345;BME280;5727;42.600;23.028;2022-10-24T03:45:31;94382.53;;;9.36;100.00
11345;BME280;5727;42.600;23.028;2022-10-24T03:47:58;94386.09;;;9.40;100.00
11345;BME280;5727;42.600;23.028;2022-10-24T03:50:25;94380.28;;;9.43;100.00
11345;BME280;5727;42.600;23.028;2022-10-24T03:52:51;94385.06;;;9.41;100.00
11345;BME280;5727;42.600;23.028;2022-10-24T03:55:18;94386.56;;;9.42;100.00
11345;BME280;5727;42.600;23.028;2022-10-24T03:57:45;94386.41;;;9.38;100.00
11345;BME280;5727;42.600;23.028;2022-10-24T04:00:14;94383.78;;;9.30;100.00
11345;BME280;5727;42.600;23.028;2022-10-24T04:02:43;94388.41;;;9.33;100.00
11345;BME280;5727;42.600;23.028;2022-10-24T04:05:10;94381.63;;;9.32;100.00
11345;BME280;5727;42.600;23.028;2022-10-24T04:07:37;94385.63;;;9.29;100.00
11345;BME280;5727;42.600;23.028;2022-10-24T04:10:04;94382.53;;;9.27;100.00
11345;BME280;5727;42.600;23.028;2022-10-24T04:12:32;94375.47;;;9.28;100.00
11345;BME280;5727;42.600;23.028;2022-10-24T04:14:58;94377.00;;;9.29;100.00
11345;BME280;5727;42.600;23.028;2022-10-24T04:17:26;94377.75;;;9.29;100.00
11345;BME280;5727;42.600;23.028;2022-10-24T04:19:53;94370.81;;;9.24;100.00
11345;BME280;5727;42.600;23.028;2022-10-24T04:22:20;94369.75;;;9.26;100.00
11345;BME280;5727;42.600;23.028;2022-10-24T04:24:47;94380.22;;;9.26;100.00
11345;BME280;5727;42.600;23.028;2022-10-24T04:27:14;94379.13;;;9.27;100.00
11345;BME280;5727;42.600;23.028;2022-10-24T04:29:40;94383.31;;;9.28;100.00
11345;BME280;5727;42.600;23.028;2022-10-24T04:32:07;94379.59;;;9.29;100.00
11345;BME280;5727;42.600;23.028;2022-10-24T04:34:35;94383.00;;;9.29;100.00
11345;BME280;5727;42.600;23.028;2022-10-24T04:37:02;94385.63;;;9.29;100.00
11345;BME280;5727;42.600;23.028;2022-10-24T04:39:29;94388.22;;;9.29;100.00
11345;BME280;5727;42.600;23.028;2022-10-24T04:41:56;94388.22;;;9.29;100.00
11345;BME280;5727;42.600;23.028;2022-10-24T04:44:23;94386.88;;;9.32;100.00
11345;BME280;5727;42.600;23.028;2022-10-24T04:46:50;94383.78;;;9.30;100.00
11345;BME280;5727;42.600;23.028;2022-10-24T04:49:16;94380.06;;;9.31;100.00
11345;BME280;5727;42.600;23.028;2022-10-24T04:51:45;94378.53;;;9.30;100.00
11345;BME280;5727;42.600;23.028;2022-10-24T04:54:12;94383.31;;;9.28;100.00
11345;BME280;5727;42.600;23.028;2022-10-24T04:56:38;94380.22;;;9.26;100.00
11345;BME280;5727;42.600;23.028;2022-10-24T04:59:05;94389.41;;;9.23;100.00
11345;BME280;5727;42.600;23.028;2022-10-24T05:01:35;94386.19;;;9.26;100.00
11345;BME280;5727;42.600;23.028;2022-10-24T05:04:02;94396.97;;;9.24;100.00
11345;BME280;5727;42.600;23.028;2022-10-24T05:06:28;94393.47;;;9.29;100.00
11345;BME280;5727;42.600;23.028;2022-10-24T05:08:57;94393.63;;;9.33;100.00
11345;BME280;5727;42.600;23.028;2022-10-24T05:11:23;94383.16;;;9.33;100.00
11345;BME280;5727;42.600;23.028;2022-10-24T05:13:50;94398.25;;;9.36;100.00
11345;BME280;5727;42.600;23.028;2022-10-24T05:16:17;94394.25;;;9.38;100.00
11345;BME280;5727;42.600;23.028;2022-10-24T05:18:44;94399.50;;;9.38;100.00
11345;BME280;5727;42.600;23.028;2022-10-24T05:21:10;94404.63;;;9.43;100.00
11345;BME280;5727;42.600;23.028;2022-10-24T05:23:37;94402.16;;;9.47;100.00
11345;BME280;5727;42.600;23.028;2022-10-24T05:26:06;94403.38;;;9.49;100.00
11345;BME280;5727;42.600;23.028;2022-10-24T05:28:33;94393.38;;;9.51;100.00
11345;BME280;5727;42.600;23.028;2022-10-24T05:31:00;94401.72;;;9.53;100.00
11345;BME280;5727;42.600;23.028;2022-10-24T05:33:27;94400.81;;;9.58;100.00
11345;BME280;5727;42.600;23.028;2022-10-24T05:35:53;94400.66;;;9.63;100.00
11345;BME280;5727;42.600;23.028;2022-10-24T05:38:20;94395.31;;;9.68;100.00
11345;BME280;5727;42.600;23.028;2022-10-24T05:40:47;94399.94;;;9.71;100.00
11345;BME280;5727;42.600;23.028;2022-10-24T05:43:17;94407.31;;;9.69;100.00
11345;BME280;5727;42.600;23.028;2022-10-24T05:45:44;94404.13;;;9.72;100.00
11345;BME280;5727;42.600;23.028;2022-10-24T05:48:12;94407.38;;;9.77;100.00
11345;BME280;5727;42.600;23.028;2022-10-24T05:50:39;94407.66;;;9.76;100.00
11345;BME280;5727;42.600;23.028;2022-10-24T05:53:07;94408.00;;;9.83;100.00
11345;BME280;5727;42.600;23.028;2022-10-24T05:58:21;94415.22;;;9.77;100.00
11345;BME280;5727;42.600;23.028;2022-10-24T06:00:48;94410.72;;;9.78;100.00
11345;BME280;5727;42.600;23.028;2022-10-24T06:03:16;94417.38;;;9.84;100.00
11345;BME280;5727;42.600;23.028;2022-10-24T06:05:42;94418.47;;;9.83;100.00
11345;BME280;5727;42.600;23.028;2022-10-24T06:08:09;94431.41;;;9.88;100.00
11345;BME280;5727;42.600;23.028;2022-10-24T06:10:36;94428.66;;;9.93;100.00
11345;BME280;5727;42.600;23.028;2022-10-24T06:13:03;94419.13;;;9.97;100.00
11345;BME280;5727;42.600;23.028;2022-10-24T06:15:31;94423.31;;;10.06;100.00
11345;BME280;5727;42.600;23.028;2022-10-24T06:17:58;94426.44;;;10.17;100.00
11345;BME280;5727;42.600;23.028;2022-10-24T06:20:25;94423.53;;;10.27;100.00
11345;BME280;5727;42.600;23.028;2022-10-24T06:22:52;94422.47;;;10.37;100.00
11345;BME280;5727;42.600;23.028;2022-10-24T06:25:19;94438.38;;;10.49;100.00
11345;BME280;5727;42.600;23.028;2022-10-24T06:27:46;94433.75;;;10.54;100.00
11345;BME280;5727;42.600;23.028;2022-10-24T06:30:14;94435.28;;;10.55;100.00
11345;BME280;5727;42.600;23.028;2022-10-24T06:32:42;94431.28;;;10.66;100.00
11345;BME280;5727;42.600;23.028;2022-10-24T06:35:09;94437.31;;;10.75;100.00
11345;BME280;5727;42.600;23.028;2022-10-24T06:37:37;94433.75;;;10.88;100.00
11345;BME280;5727;42.600;23.028;2022-10-24T06:40:05;94441.00;;;11.00;100.00
11345;BME280;5727;42.600;23.028;2022-10-24T06:42:32;94451.19;;;10.93;100.00
11345;BME280;5727;42.600;23.028;2022-10-24T06:44:58;94450.25;;;10.97;100.00
11345;BME280;5727;42.600;23.028;2022-10-24T06:47:25;94454.75;;;10.88;100.00
11345;BME280;5727;42.600;23.028;2022-10-24T06:49:53;94450.41;;;10.92;100.00
11345;BME280;5727;42.600;23.028;2022-10-24T06:52:20;94449.16;;;11.07;100.00
11345;BME280;5727;42.600;23.028;2022-10-24T06:54:47;94452.44;;;11.04;100.00
11345;BME280;5727;42.600;23.028;2022-10-24T06:57:14;94449.63;;;11.09;100.00
11345;BME280;5727;42.600;23.028;2022-10-24T06:59:42;94446.84;;;11.23;100.00
11345;BME280;5727;42.600;23.028;2022-10-24T07:02:11;94443.28;;;11.27;100.00
11345;BME280;5727;42.600;23.028;2022-10-24T07:04:38;94449.28;;;11.36;100.00
11345;BME280;5727;42.600;23.028;2022-10-24T07:07:10;94446.19;;;11.43;100.00
11345;BME280;5727;42.600;23.028;2022-10-24T07:09:41;94449.56;;;11.52;100.00
11345;BME280;5727;42.600;23.028;2022-10-24T07:12:09;94448.00;;;11.59;100.00
11345;BME280;5727;42.600;23.028;2022-10-24T07:14:36;94453.50;;;11.83;100.00
11345;BME280;5727;42.600;23.028;2022-10-24T07:17:03;94452.81;;;12.04;100.00
11345;BME280;5727;42.600;23.028;2022-10-24T07:19:30;94456.91;;;12.22;100.00
11345;BME280;5727;42.600;23.028;2022-10-24T07:21:57;94453.56;;;12.42;100.00
11345;BME280;5727;42.600;23.028;2022-10-24T07:24:25;94454.25;;;12.51;100.00
11345;BME280;5727;42.600;23.028;2022-10-24T07:26:52;94455.13;;;12.63;100.00
11345;BME280;5727;42.600;23.028;2022-10-24T07:29:19;94448.59;;;12.69;100.00
11345;BME280;5727;42.600;23.028;2022-10-24T07:31:46;94458.53;;;12.84;100.00
11345;BME280;5727;42.600;23.028;2022-10-24T07:34:13;94448.25;;;12.92;100.00
11345;BME280;5727;42.600;23.028;2022-10-24T07:36:40;94442.50;;;12.98;100.00
11345;BME280;5727;42.600;23.028;2022-10-24T07:39:07;94438.19;;;13.14;100.00
11345;BME280;5727;42.600;23.028;2022-10-24T07:41:37;94445.53;;;13.29;100.00
11345;BME280;5727;42.600;23.028;2022-10-24T07:44:05;94445.34;;;13.46;100.00
11345;BME280;5727;42.600;23.028;2022-10-24T07:46:31;94445.50;;;13.62;100.00
11345;BME280;5727;42.600;23.028;2022-10-24T07:48:58;94443.53;;;13.71;100.00
11345;BME280;5727;42.600;23.028;2022-10-24T07:51:25;94449.38;;;13.89;100.00
11345;BME280;5727;42.600;23.028;2022-10-24T07:53:54;94449.94;;;14.06;100.00
11345;BME280;5727;42.600;23.028;2022-10-24T07:56:21;94443.59;;;14.19;100.00
11345;BME280;5727;42.600;23.028;2022-10-24T07:58:49;94438.44;;;14.23;100.00
11345;BME280;5727;42.600;23.028;2022-10-24T08:01:18;94437.00;;;14.37;100.00
11345;BME280;5727;42.600;23.028;2022-10-24T08:03:45;94432.94;;;14.52;100.00
11345;BME280;5727;42.600;23.028;2022-10-24T08:06:16;94435.88;;;14.62;100.00
11345;BME280;5727;42.600;23.028;2022-10-24T08:08:43;94438.59;;;14.78;100.00
11345;BME280;5727;42.600;23.028;2022-10-24T08:11:13;94432.44;;;14.86;100.00
11345;BME280;5727;42.600;23.028;2022-10-24T08:13:40;94425.25;;;14.99;100.00
11345;BME280;5727;42.600;23.028;2022-10-24T08:16:10;94417.53;;;15.06;100.00
11345;BME280;5727;42.600;23.028;2022-10-24T08:18:38;94421.03;;;15.10;99.67
11345;BME280;5727;42.600;23.028;2022-10-24T08:21:06;94421.88;;;15.14;99.71
11345;BME280;5727;42.600;23.028;2022-10-24T08:23:34;94425.25;;;15.26;99.55
11345;BME280;5727;42.600;23.028;2022-10-24T08:26:04;94415.75;;;15.37;99.70
11345;BME280;5727;42.600;23.028;2022-10-24T08:28:31;94416.72;;;15.45;99.96
11345;BME280;5727;42.600;23.028;2022-10-24T08:30:59;94416.22;;;15.55;99.27
11345;BME280;5727;42.600;23.028;2022-10-24T08:33:28;94412.25;;;15.61;98.66
11345;BME280;5727;42.600;23.028;2022-10-24T08:35:58;94419.31;;;15.57;98.01
11345;BME280;5727;42.600;23.028;2022-10-24T08:38:25;94421.97;;;15.73;98.16
11345;BME280;5727;42.600;23.028;2022-10-24T08:40:52;94413.84;;;15.81;98.13
11345;BME280;5727;42.600;23.028;2022-10-24T08:43:19;94401.34;;;15.94;98.10
11345;BME280;5727;42.600;23.028;2022-10-24T08:45:54;94401.34;;;16.09;96.60
11345;BME280;5727;42.600;23.028;2022-10-24T08:48:30;94411.56;;;16.26;96.98
11345;BME280;5727;42.600;23.028;2022-10-24T08:51:02;94404.63;;;16.37;96.32
11345;BME280;5727;42.600;23.028;2022-10-24T08:53:32;94405.53;;;16.45;95.21
11345;BME280;5727;42.600;23.028;2022-10-24T08:56:00;94396.81;;;16.60;94.64
11345;BME280;5727;42.600;23.028;2022-10-24T08:58:29;94392.88;;;16.70;93.95
11345;BME280;5727;42.600;23.028;2022-10-24T09:01:00;94395.34;;;16.78;93.70
11345;BME280;5727;42.600;23.028;2022-10-24T09:03:32;94383.13;;;16.93;93.13
11345;BME280;5727;42.600;23.028;2022-10-24T09:06:03;94381.63;;;16.92;94.08
11345;BME280;5727;42.600;23.028;2022-10-24T09:08:37;94380.44;;;17.08;92.80
11345;BME280;5727;42.600;23.028;2022-10-24T09:11:13;94381.69;;;17.14;92.87
11345;BME280;5727;42.600;23.028;2022-10-24T09:13:42;94381.47;;;17.23;92.11
11345;BME280;5727;42.600;23.028;2022-10-24T09:16:09;94376.84;;;17.39;90.92
11345;BME280;5727;42.600;23.028;2022-10-24T09:18:40;94379.78;;;17.53;90.03
11345;BME280;5727;42.600;23.028;2022-10-24T09:21:12;94376.19;;;17.65;89.27
11345;BME280;5727;42.600;23.028;2022-10-24T09:23:39;94365.88;;;17.82;88.55
11345;BME280;5727;42.600;23.028;2022-10-24T09:26:15;94362.97;;;17.91;88.33
11345;BME280;5727;42.600;23.028;2022-10-24T09:28:43;94361.63;;;18.00;87.54
11345;BME280;5727;42.600;23.028;2022-10-24T09:31:15;94365.50;;;18.06;87.08
11345;BME280;5727;42.600;23.028;2022-10-24T09:33:45;94365.00;;;18.23;86.59
11345;BME280;5727;42.600;23.028;2022-10-24T09:36:13;94359.91;;;18.38;86.35
11345;BME280;5727;42.600;23.028;2022-10-24T09:38:41;94363.50;;;18.49;85.06
11345;BME280;5727;42.600;23.028;2022-10-24T09:41:16;94366.44;;;18.70;84.81
11345;BME280;5727;42.600;23.028;2022-10-24T09:43:49;94356.00;;;18.84;83.75
11345;BME280;5727;42.600;23.028;2022-10-24T09:46:20;94350.06;;;18.94;82.88
11345;BME280;5727;42.600;23.028;2022-10-24T09:48:51;94352.53;;;19.13;81.20
11345;BME280;5727;42.600;23.028;2022-10-24T09:51:26;94352.63;;;19.20;81.93
11345;BME280;5727;42.600;23.028;2022-10-24T09:54:00;94350.53;;;19.36;80.29
11345;BME280;5727;42.600;23.028;2022-10-24T09:56:33;94343.88;;;19.56;79.65
11345;BME280;5727;42.600;23.028;2022-10-24T09:59:17;94349.25;;;19.63;80.54
11345;BME280;5727;42.600;23.028;2022-10-24T10:01:43;94346.34;;;19.75;80.25
11345;BME280;5727;42.600;23.028;2022-10-24T10:04:15;94344.56;;;19.90;76.68
11345;BME280;5727;42.600;23.028;2022-10-24T10:06:43;94342.34;;;19.95;77.18
11345;BME280;5727;42.600;23.028;2022-10-24T10:09:13;94337.84;;;20.03;78.30
11345;BME280;5727;42.600;23.028;2022-10-24T10:11:40;94335.69;;;20.19;77.50
11345;BME280;5727;42.600;23.028;2022-10-24T10:14:19;94327.00;;;20.29;75.60
11345;BME280;5727;42.600;23.028;2022-10-24T10:16:57;94325.94;;;20.41;74.43
11345;BME280;5727;42.600;23.028;2022-10-24T10:19:34;94327.53;;;20.56;70.02
11345;BME280;5727;42.600;23.028;2022-10-24T10:22:04;94328.38;;;20.67;64.94
11345;BME280;5727;42.600;23.028;2022-10-24T10:24:37;94313.19;;;20.74;67.22
11345;BME280;5727;42.600;23.028;2022-10-24T10:27:27;94314.72;;;20.79;65.99
11345;BME280;5727;42.600;23.028;2022-10-24T10:30:13;94314.00;;;20.96;65.92
11345;BME280;5727;42.600;23.028;2022-10-24T10:32:46;94312.97;;;21.11;64.76
11345;BME280;5727;42.600;23.028;2022-10-24T10:35:19;94306.50;;;21.19;62.08
11345;BME280;5727;42.600;23.028;2022-10-24T10:37:49;94301.97;;;21.30;61.86
11345;BME280;5727;42.600;23.028;2022-10-24T10:40:25;94298.56;;;21.44;61.68
11345;BME280;5727;42.600;23.028;2022-10-24T10:43:04;94295.50;;;21.59;59.85
11345;BME280;5727;42.600;23.028;2022-10-24T10:45:40;94290.19;;;21.66;60.49
11345;BME280;5727;42.600;23.028;2022-10-24T10:48:22;94282.94;;;21.77;58.30
11345;BME280;5727;42.600;23.028;2022-10-24T10:50:58;94280.31;;;21.88;57.84
11345;BME280;5727;42.600;23.028;2022-10-24T10:53:34;94270.78;;;21.87;55.44
11345;BME280;5727;42.600;23.028;2022-10-24T10:56:09;94267.34;;;21.97;55.36
11345;BME280;5727;42.600;23.028;2022-10-24T10:58:47;94270.75;;;22.15;56.10
11345;BME280;5727;42.600;23.028;2022-10-24T11:01:24;94268.81;;;22.23;53.45
11345;BME280;5727;42.600;23.028;2022-10-24T11:03:57;94269.97;;;22.22;54.69
11345;BME280;5727;42.600;23.028;2022-10-24T11:06:33;94255.09;;;22.24;53.35
11345;BME280;5727;42.600;23.028;2022-10-24T11:09:26;94262.69;;;22.36;54.80
11345;BME280;5727;42.600;23.028;2022-10-24T11:12:10;94255.03;;;22.45;53.75
11345;BME280;5727;42.600;23.028;2022-10-24T11:14:39;94250.44;;;22.60;52.90
11345;BME280;5727;42.600;23.028;2022-10-24T11:17:14;94245.78;;;22.71;51.11
11345;BME280;5727;42.600;23.028;2022-10-24T11:19:53;94238.91;;;22.77;51.86
11345;BME280;5727;42.600;23.028;2022-10-24T11:22:26;94236.59;;;22.79;49.34
11345;BME280;5727;42.600;23.028;2022-10-24T11:24:57;94237.31;;;22.90;47.22
11345;BME280;5727;42.600;23.028;2022-10-24T11:27:30;94231.91;;;23.01;46.90
11345;BME280;5727;42.600;23.028;2022-10-24T11:30:03;94228.09;;;23.05;46.25
11345;BME280;5727;42.600;23.028;2022-10-24T11:32:33;94228.41;;;23.14;46.18
11345;BME280;5727;42.600;23.028;2022-10-24T11:35:09;94226.88;;;23.13;45.98
11345;BME280;5727;42.600;23.028;2022-10-24T11:37:42;94215.34;;;23.23;47.30
11345;BME280;5727;42.600;23.028;2022-10-24T11:40:12;94216.50;;;23.22;48.13
11345;BME280;5727;42.600;23.028;2022-10-24T11:42:44;94210.81;;;23.13;50.86
11345;BME280;5727;42.600;23.028;2022-10-24T11:45:15;94211.09;;;23.33;46.19
11345;BME280;5727;42.600;23.028;2022-10-24T11:47:50;94207.25;;;23.37;46.65
11345;BME280;5727;42.600;23.028;2022-10-24T11:50:25;94211.38;;;23.49;45.12
11345;BME280;5727;42.600;23.028;2022-10-24T11:52:59;94202.50;;;23.59;45.02
11345;BME280;5727;42.600;23.028;2022-10-24T11:55:31;94194.81;;;23.65;45.97
11345;BME280;5727;42.600;23.028;2022-10-24T11:58:07;94196.69;;;23.68;44.89
11345;BME280;5727;42.600;23.028;2022-10-24T12:00:40;94201.59;;;23.76;44.17
11345;BME280;5727;42.600;23.028;2022-10-24T12:03:35;94187.78;;;23.81;44.66
11345;BME280;5727;42.600;23.028;2022-10-24T12:06:21;94191.09;;;23.92;44.72
11345;BME280;5727;42.600;23.028;2022-10-24T12:09:18;94192.31;;;23.88;46.23
11345;BME280;5727;42.600;23.028;2022-10-24T12:12:13;94193.19;;;24.48;42.91
11345;BME280;5727;42.600;23.028;2022-10-24T12:14:52;94185.94;;;24.79;40.81
11345;BME280;5727;42.600;23.028;2022-10-24T12:17:59;94185.13;;;24.82;40.53
11345;BME280;5727;42.600;23.028;2022-10-24T12:20:28;94180.69;;;24.72;40.80
11345;BME280;5727;42.600;23.028;2022-10-24T12:22:56;94184.03;;;24.80;40.67
11345;BME280;5727;42.600;23.028;2022-10-24T12:25:30;94179.97;;;24.95;40.44
11345;BME280;5727;42.600;23.028;2022-10-24T12:28:01;94171.91;;;25.48;39.50
11345;BME280;5727;42.600;23.028;2022-10-24T12:30:30;94177.25;;;26.92;37.03
11345;BME280;5727;42.600;23.028;2022-10-24T12:33:07;94163.38;;;27.62;34.32
11345;BME280;5727;42.600;23.028;2022-10-24T12:35:50;94170.09;;;28.72;31.92
11345;BME280;5727;42.600;23.028;2022-10-24T12:41:41;94156.47;;;30.97;28.10
11345;BME280;5727;42.600;23.028;2022-10-24T12:44:23;94155.72;;;31.45;27.59
11345;BME280;5727;42.600;23.028;2022-10-24T12:46:52;94145.78;;;31.91;27.46
11345;BME280;5727;42.600;23.028;2022-10-24T12:49:25;94154.53;;;31.46;27.20
11345;BME280;5727;42.600;23.028;2022-10-24T12:51:53;94150.81;;;30.60;28.35
11345;BME280;5727;42.600;23.028;2022-10-24T12:54:38;94149.44;;;30.78;27.94
11345;BME280;5727;42.600;23.028;2022-10-24T12:57:25;94141.66;;;31.19;28.02
11345;BME280;5727;42.600;23.028;2022-10-24T12:59:54;94138.69;;;31.93;27.29
11345;BME280;5727;42.600;23.028;2022-10-24T13:02:37;94144.38;;;32.59;26.38
11345;BME280;5727;42.600;23.028;2022-10-24T13:05:20;94145.66;;;32.90;24.86
11345;BME280;5727;42.600;23.028;2022-10-24T13:08:05;94138.84;;;32.95;24.56
11345;BME280;5727;42.600;23.028;2022-10-24T13:10:42;94134.50;;;32.88;24.61
11345;BME280;5727;42.600;23.028;2022-10-24T13:16:16;94138.50;;;33.44;24.70
11345;BME280;5727;42.600;23.028;2022-10-24T13:18:53;94136.34;;;33.80;25.00
11345;BME280;5727;42.600;23.028;2022-10-24T13:21:28;94133.78;;;34.00;24.88